Terminal Aerodrome Forecast
Issued by NWS Wichita, KS

Home | Current Version | Previous Version | Graphics & Text | Print | Product List | Glossary On
Versions: 1 2 3 4 5 6 7 8 9 10 11 12 13 14 15 16 17 18 19 20
000
FTUS43 KICT 260243 AAB
TAFICT
TAF AMD
KICT 260243Z 2603/2624 03010KT P6SM SCT035
     FM260600 05006KT P6SM VCTS SCT035 BKN060CB
     FM261200 VRB04KT P6SM SCT020 BKN100
     FM261600 14008KT P6SM FEW035=

USA.gov is the U.S. government's official web portal to all federal, state and local government web resources and services.